Harpersfield, New York
Current Conditions -  °F | °C
As of 5:35 AM on Sunday 21 Dec 2014 (Local Time) from KNY0 Reporting Station
Overcast Overcast  
Wind Chill: 23°   Ceiling: 2200
Heat Index: 23°   Visibility: 10mi
Dew Point: 20°   Wind: 0mph
Humidity: 86%   Direction: NA
Pressure: 30.27"   Gusts: NA
Location:  42.44°N, 74.69°W
Report Text: KNY0 211035Z AUTO 00000KT 10SM OVC022 M05/M07 A3027 RMK AO2 T10491069
Loading
Personal Weather Stations






























Interactive Weather Map New forecast layout! Learn more

10-Day Weather Forecast

Advertisements
Track Severe Weather on mobile